sensor_id;sensor_type;location;lat;lon;timestamp;temperature;humidity
72650;SHT31;61467;50.674;4.618;2022-11-15T00:00:12;11.69;86.05
72650;SHT31;61467;50.674;4.618;2022-11-15T00:02:40;11.78;85.80
72650;SHT31;61467;50.674;4.618;2022-11-15T00:05:07;11.88;85.93
72650;SHT31;61467;50.674;4.618;2022-11-15T00:07:34;11.93;85.32
72650;SHT31;61467;50.674;4.618;2022-11-15T00:10:00;11.77;85.70
72650;SHT31;61467;50.674;4.618;2022-11-15T00:12:27;11.83;85.80
72650;SHT31;61467;50.674;4.618;2022-11-15T00:14:54;11.93;85.50
72650;SHT31;61467;50.674;4.618;2022-11-15T00:17:21;12.02;85.48
72650;SHT31;61467;50.674;4.618;2022-11-15T00:19:49;11.91;85.57
72650;SHT31;61467;50.674;4.618;2022-11-15T00:22:15;11.98;85.79
72650;SHT31;61467;50.674;4.618;2022-11-15T00:24:42;11.97;85.13
72650;SHT31;61467;50.674;4.618;2022-11-15T00:27:09;12.05;85.17
72650;SHT31;61467;50.674;4.618;2022-11-15T00:29:35;12.14;85.09
72650;SHT31;61467;50.674;4.618;2022-11-15T00:32:03;12.06;85.14
72650;SHT31;61467;50.674;4.618;2022-11-15T00:34:30;11.97;85.79
72650;SHT31;61467;50.674;4.618;2022-11-15T00:36:58;11.91;85.69
72650;SHT31;61467;50.674;4.618;2022-11-15T00:39:25;12.12;85.21
72650;SHT31;61467;50.674;4.618;2022-11-15T00:41:51;12.08;85.35
72650;SHT31;61467;50.674;4.618;2022-11-15T00:44:18;12.14;85.14
72650;SHT31;61467;50.674;4.618;2022-11-15T00:46:45;12.08;85.52
72650;SHT31;61467;50.674;4.618;2022-11-15T00:49:11;11.99;85.96
72650;SHT31;61467;50.674;4.618;2022-11-15T00:51:38;12.15;85.12
72650;SHT31;61467;50.674;4.618;2022-11-15T00:54:06;12.20;85.16
72650;SHT31;61467;50.674;4.618;2022-11-15T00:56:33;12.10;85.55
72650;SHT31;61467;50.674;4.618;2022-11-15T00:58:59;11.99;86.16
72650;SHT31;61467;50.674;4.618;2022-11-15T01:01:26;12.02;85.98
72650;SHT31;61467;50.674;4.618;2022-11-15T01:03:53;12.17;85.33
72650;SHT31;61467;50.674;4.618;2022-11-15T01:06:19;12.32;84.89
72650;SHT31;61467;50.674;4.618;2022-11-15T01:08:46;12.29;84.89
72650;SHT31;61467;50.674;4.618;2022-11-15T01:11:14;12.15;85.35
72650;SHT31;61467;50.674;4.618;2022-11-15T01:13:41;12.12;85.75
72650;SHT31;61467;50.674;4.618;2022-11-15T01:16:09;12.28;85.41
72650;SHT31;61467;50.674;4.618;2022-11-15T01:18:36;12.25;85.38
72650;SHT31;61467;50.674;4.618;2022-11-15T01:21:08;12.26;85.39
72650;SHT31;61467;50.674;4.618;2022-11-15T01:23:35;12.28;85.47
72650;SHT31;61467;50.674;4.618;2022-11-15T01:26:03;12.22;85.87
72650;SHT31;61467;50.674;4.618;2022-11-15T01:28:32;12.10;86.36
72650;SHT31;61467;50.674;4.618;2022-11-15T01:31:00;12.25;85.83
72650;SHT31;61467;50.674;4.618;2022-11-15T01:33:27;12.25;86.27
72650;SHT31;61467;50.674;4.618;2022-11-15T01:35:54;12.25;86.03
72650;SHT31;61467;50.674;4.618;2022-11-15T01:38:20;12.35;85.95
72650;SHT31;61467;50.674;4.618;2022-11-15T01:40:47;12.35;85.75
72650;SHT31;61467;50.674;4.618;2022-11-15T01:43:21;12.25;86.13
72650;SHT31;61467;50.674;4.618;2022-11-15T01:45:52;12.17;86.73
72650;SHT31;61467;50.674;4.618;2022-11-15T01:48:20;12.26;86.32
72650;SHT31;61467;50.674;4.618;2022-11-15T01:50:48;12.17;87.14
72650;SHT31;61467;50.674;4.618;2022-11-15T01:53:17;12.29;86.28
72650;SHT31;61467;50.674;4.618;2022-11-15T01:55:45;12.38;86.18
72650;SHT31;61467;50.674;4.618;2022-11-15T01:58:12;12.36;86.16
72650;SHT31;61467;50.674;4.618;2022-11-15T02:00:39;12.38;86.21
72650;SHT31;61467;50.674;4.618;2022-11-15T02:03:07;12.38;86.27
72650;SHT31;61467;50.674;4.618;2022-11-15T02:05:35;12.38;86.27
72650;SHT31;61467;50.674;4.618;2022-11-15T02:08:02;12.29;86.47
72650;SHT31;61467;50.674;4.618;2022-11-15T02:10:29;12.39;86.37
72650;SHT31;61467;50.674;4.618;2022-11-15T02:12:56;12.42;86.08
72650;SHT31;61467;50.674;4.618;2022-11-15T02:15:32;12.36;86.15
72650;SHT31;61467;50.674;4.618;2022-11-15T02:18:11;12.38;86.48
72650;SHT31;61467;50.674;4.618;2022-11-15T02:20:52;12.39;86.07
72650;SHT31;61467;50.674;4.618;2022-11-15T02:26:50;12.36;86.22
72650;SHT31;61467;50.674;4.618;2022-11-15T02:29:30;12.35;86.65
72650;SHT31;61467;50.674;4.618;2022-11-15T02:32:05;12.42;86.37
72650;SHT31;61467;50.674;4.618;2022-11-15T02:34:41;12.29;86.89
72650;SHT31;61467;50.674;4.618;2022-11-15T02:37:15;12.28;86.92
72650;SHT31;61467;50.674;4.618;2022-11-15T02:39:48;12.39;86.47
72650;SHT31;61467;50.674;4.618;2022-11-15T02:42:19;12.53;85.96
72650;SHT31;61467;50.674;4.618;2022-11-15T02:45:07;12.39;86.30
72650;SHT31;61467;50.674;4.618;2022-11-15T02:47:42;12.36;86.46
72650;SHT31;61467;50.674;4.618;2022-11-15T02:50:12;12.48;85.91
72650;SHT31;61467;50.674;4.618;2022-11-15T02:52:39;12.43;86.12
72650;SHT31;61467;50.674;4.618;2022-11-15T02:55:27;12.49;85.93
72650;SHT31;61467;50.674;4.618;2022-11-15T02:58:11;12.45;86.12
72650;SHT31;61467;50.674;4.618;2022-11-15T03:00:47;12.45;86.01
72650;SHT31;61467;50.674;4.618;2022-11-15T03:03:41;12.38;86.44
72650;SHT31;61467;50.674;4.618;2022-11-15T03:06:21;12.38;86.53
72650;SHT31;61467;50.674;4.618;2022-11-15T03:08:57;12.38;86.20
72650;SHT31;61467;50.674;4.618;2022-11-15T03:11:35;12.17;86.61
72650;SHT31;61467;50.674;4.618;2022-11-15T03:14:10;12.11;86.95
72650;SHT31;61467;50.674;4.618;2022-11-15T03:16:43;12.02;87.17
72650;SHT31;61467;50.674;4.618;2022-11-15T03:19:16;12.15;86.48
72650;SHT31;61467;50.674;4.618;2022-11-15T03:21:44;12.28;85.98
72650;SHT31;61467;50.674;4.618;2022-11-15T03:24:12;12.28;85.85
72650;SHT31;61467;50.674;4.618;2022-11-15T03:26:42;12.26;85.86
72650;SHT31;61467;50.674;4.618;2022-11-15T03:29:14;12.38;85.64
72650;SHT31;61467;50.674;4.618;2022-11-15T03:31:45;12.25;85.85
72650;SHT31;61467;50.674;4.618;2022-11-15T03:34:20;12.14;86.09
72650;SHT31;61467;50.674;4.618;2022-11-15T03:36:49;12.11;86.02
72650;SHT31;61467;50.674;4.618;2022-11-15T03:39:17;12.10;85.84
72650;SHT31;61467;50.674;4.618;2022-11-15T03:41:48;12.18;85.67
72650;SHT31;61467;50.674;4.618;2022-11-15T03:44:24;12.26;85.22
72650;SHT31;61467;50.674;4.618;2022-11-15T03:47:00;11.97;85.89
72650;SHT31;61467;50.674;4.618;2022-11-15T03:49:32;12.17;85.50
72650;SHT31;61467;50.674;4.618;2022-11-15T03:52:02;12.04;85.84
72650;SHT31;61467;50.674;4.618;2022-11-15T03:54:29;11.84;86.45
72650;SHT31;61467;50.674;4.618;2022-11-15T03:56:55;11.94;86.27
72650;SHT31;61467;50.674;4.618;2022-11-15T03:59:22;11.98;85.62
72650;SHT31;61467;50.674;4.618;2022-11-15T04:01:49;11.87;86.14
72650;SHT31;61467;50.674;4.618;2022-11-15T04:04:15;11.84;86.23
72650;SHT31;61467;50.674;4.618;2022-11-15T04:06:43;11.85;86.06
72650;SHT31;61467;50.674;4.618;2022-11-15T04:09:10;11.67;86.67
72650;SHT31;61467;50.674;4.618;2022-11-15T04:11:37;11.73;86.39
72650;SHT31;61467;50.674;4.618;2022-11-15T04:14:03;11.74;86.08
72650;SHT31;61467;50.674;4.618;2022-11-15T04:16:30;11.75;85.66
72650;SHT31;61467;50.674;4.618;2022-11-15T04:18:57;11.91;85.22
72650;SHT31;61467;50.674;4.618;2022-11-15T04:21:40;11.93;84.75
72650;SHT31;61467;50.674;4.618;2022-11-15T04:24:26;11.85;85.12
72650;SHT31;61467;50.674;4.618;2022-11-15T04:26:52;11.95;84.84
72650;SHT31;61467;50.674;4.618;2022-11-15T04:29:19;11.93;84.61
72650;SHT31;61467;50.674;4.618;2022-11-15T04:32:02;12.04;84.27
72650;SHT31;61467;50.674;4.618;2022-11-15T04:34:28;11.98;84.38
72650;SHT31;61467;50.674;4.618;2022-11-15T04:36:55;11.87;84.15
72650;SHT31;61467;50.674;4.618;2022-11-15T04:39:43;11.84;84.60
72650;SHT31;61467;50.674;4.618;2022-11-15T04:42:10;11.80;84.55
72650;SHT31;61467;50.674;4.618;2022-11-15T04:44:37;11.90;84.33
72650;SHT31;61467;50.674;4.618;2022-11-15T04:47:04;11.88;83.87
72650;SHT31;61467;50.674;4.618;2022-11-15T04:49:31;11.64;84.30
72650;SHT31;61467;50.674;4.618;2022-11-15T04:51:58;11.63;84.33
72650;SHT31;61467;50.674;4.618;2022-11-15T04:54:24;11.56;84.44
72650;SHT31;61467;50.674;4.618;2022-11-15T04:56:52;11.40;84.48
72650;SHT31;61467;50.674;4.618;2022-11-15T04:59:19;11.47;84.46
72650;SHT31;61467;50.674;4.618;2022-11-15T05:01:45;11.64;84.12
72650;SHT31;61467;50.674;4.618;2022-11-15T05:04:12;11.50;84.18
72650;SHT31;61467;50.674;4.618;2022-11-15T05:06:48;11.63;84.09
72650;SHT31;61467;50.674;4.618;2022-11-15T05:09:16;11.59;84.04
72650;SHT31;61467;50.674;4.618;2022-11-15T05:11:43;11.69;83.63
72650;SHT31;61467;50.674;4.618;2022-11-15T05:14:11;11.77;83.26
72650;SHT31;61467;50.674;4.618;2022-11-15T05:16:37;11.78;82.84
72650;SHT31;61467;50.674;4.618;2022-11-15T05:19:05;11.73;82.95
72650;SHT31;61467;50.674;4.618;2022-11-15T05:21:32;11.63;82.76
72650;SHT31;61467;50.674;4.618;2022-11-15T05:23:59;11.54;83.02
72650;SHT31;61467;50.674;4.618;2022-11-15T05:26:26;11.60;82.79
72650;SHT31;61467;50.674;4.618;2022-11-15T05:28:53;11.60;82.71
72650;SHT31;61467;50.674;4.618;2022-11-15T05:31:22;11.60;82.44
72650;SHT31;61467;50.674;4.618;2022-11-15T05:33:50;11.52;82.65
72650;SHT31;61467;50.674;4.618;2022-11-15T05:36:21;11.50;82.50
72650;SHT31;61467;50.674;4.618;2022-11-15T05:38:49;11.54;82.30
72650;SHT31;61467;50.674;4.618;2022-11-15T05:41:17;11.43;82.73
72650;SHT31;61467;50.674;4.618;2022-11-15T05:43:46;11.49;82.70
72650;SHT31;61467;50.674;4.618;2022-11-15T05:46:14;11.36;82.86
72650;SHT31;61467;50.674;4.618;2022-11-15T05:48:46;11.39;82.81
72650;SHT31;61467;50.674;4.618;2022-11-15T05:51:15;11.36;82.65
72650;SHT31;61467;50.674;4.618;2022-11-15T05:53:44;11.30;82.82
72650;SHT31;61467;50.674;4.618;2022-11-15T05:56:12;11.29;82.89
72650;SHT31;61467;50.674;4.618;2022-11-15T05:58:38;11.34;82.63
72650;SHT31;61467;50.674;4.618;2022-11-15T06:01:05;11.19;82.83
72650;SHT31;61467;50.674;4.618;2022-11-15T06:03:32;11.25;82.95
72650;SHT31;61467;50.674;4.618;2022-11-15T06:06:00;11.13;83.08
72650;SHT31;61467;50.674;4.618;2022-11-15T06:08:27;11.20;84.04
72650;SHT31;61467;50.674;4.618;2022-11-15T06:10:53;11.23;84.14
72650;SHT31;61467;50.674;4.618;2022-11-15T06:13:20;11.33;83.08
72650;SHT31;61467;50.674;4.618;2022-11-15T06:15:46;11.27;82.86
72650;SHT31;61467;50.674;4.618;2022-11-15T06:18:13;11.33;82.51
72650;SHT31;61467;50.674;4.618;2022-11-15T06:20:40;11.25;82.70
72650;SHT31;61467;50.674;4.618;2022-11-15T06:23:08;11.27;82.56
72650;SHT31;61467;50.674;4.618;2022-11-15T06:25:34;11.25;82.39
72650;SHT31;61467;50.674;4.618;2022-11-15T06:28:01;11.26;82.61
72650;SHT31;61467;50.674;4.618;2022-11-15T06:30:28;11.15;82.34
72650;SHT31;61467;50.674;4.618;2022-11-15T06:33:01;11.22;82.30
72650;SHT31;61467;50.674;4.618;2022-11-15T06:35:29;11.23;81.99
72650;SHT31;61467;50.674;4.618;2022-11-15T06:37:59;11.09;82.50
72650;SHT31;61467;50.674;4.618;2022-11-15T06:40:29;11.16;82.24
72650;SHT31;61467;50.674;4.618;2022-11-15T06:42:57;11.19;81.38
72650;SHT31;61467;50.674;4.618;2022-11-15T06:45:24;11.22;81.71
72650;SHT31;61467;50.674;4.618;2022-11-15T06:47:51;11.22;81.18
72650;SHT31;61467;50.674;4.618;2022-11-15T06:50:17;11.19;81.26
72650;SHT31;61467;50.674;4.618;2022-11-15T06:52:44;11.23;81.22
72650;SHT31;61467;50.674;4.618;2022-11-15T06:55:11;11.26;81.13
72650;SHT31;61467;50.674;4.618;2022-11-15T06:57:46;11.06;81.61
72650;SHT31;61467;50.674;4.618;2022-11-15T07:00:14;11.02;81.23
72650;SHT31;61467;50.674;4.618;2022-11-15T07:02:41;11.01;81.09
72650;SHT31;61467;50.674;4.618;2022-11-15T07:05:08;11.04;80.79
72650;SHT31;61467;50.674;4.618;2022-11-15T07:07:35;10.88;80.83
72650;SHT31;61467;50.674;4.618;2022-11-15T07:10:02;10.98;80.81
72650;SHT31;61467;50.674;4.618;2022-11-15T07:12:29;10.78;80.97
72650;SHT31;61467;50.674;4.618;2022-11-15T07:14:57;10.81;80.90
72650;SHT31;61467;50.674;4.618;2022-11-15T07:17:24;10.81;80.87
72650;SHT31;61467;50.674;4.618;2022-11-15T07:19:51;10.85;80.59
72650;SHT31;61467;50.674;4.618;2022-11-15T07:22:18;10.79;80.85
72650;SHT31;61467;50.674;4.618;2022-11-15T07:24:44;10.82;80.74
72650;SHT31;61467;50.674;4.618;2022-11-15T07:27:11;10.79;80.34
72650;SHT31;61467;50.674;4.618;2022-11-15T07:29:38;10.79;80.31
72650;SHT31;61467;50.674;4.618;2022-11-15T07:32:06;10.69;80.58
72650;SHT31;61467;50.674;4.618;2022-11-15T07:34:32;10.61;80.55
72650;SHT31;61467;50.674;4.618;2022-11-15T07:36:59;10.72;80.44
72650;SHT31;61467;50.674;4.618;2022-11-15T07:39:25;10.57;80.48
72650;SHT31;61467;50.674;4.618;2022-11-15T07:41:52;10.54;80.89
72650;SHT31;61467;50.674;4.618;2022-11-15T07:44:39;10.68;80.49
72650;SHT31;61467;50.674;4.618;2022-11-15T07:47:07;10.41;80.82
72650;SHT31;61467;50.674;4.618;2022-11-15T07:49:34;10.48;80.96
72650;SHT31;61467;50.674;4.618;2022-11-15T07:52:00;10.45;80.68
72650;SHT31;61467;50.674;4.618;2022-11-15T07:54:27;10.57;80.20
72650;SHT31;61467;50.674;4.618;2022-11-15T07:56:54;10.47;79.96
72650;SHT31;61467;50.674;4.618;2022-11-15T07:59:20;10.45;80.12
72650;SHT31;61467;50.674;4.618;2022-11-15T08:01:47;10.61;79.87
72650;SHT31;61467;50.674;4.618;2022-11-15T08:04:15;10.60;80.03
72650;SHT31;61467;50.674;4.618;2022-11-15T08:06:42;10.67;79.74
72650;SHT31;61467;50.674;4.618;2022-11-15T08:09:09;10.61;79.41
72650;SHT31;61467;50.674;4.618;2022-11-15T08:11:35;10.67;79.55
72650;SHT31;61467;50.674;4.618;2022-11-15T08:14:02;10.67;79.10
72650;SHT31;61467;50.674;4.618;2022-11-15T08:16:28;10.68;79.26
72650;SHT31;61467;50.674;4.618;2022-11-15T08:18:55;10.65;78.74
72650;SHT31;61467;50.674;4.618;2022-11-15T08:21:23;10.60;79.27
72650;SHT31;61467;50.674;4.618;2022-11-15T08:23:50;10.57;79.24
72650;SHT31;61467;50.674;4.618;2022-11-15T08:26:17;10.57;78.68
72650;SHT31;61467;50.674;4.618;2022-11-15T08:28:44;10.69;78.90
72650;SHT31;61467;50.674;4.618;2022-11-15T08:31:14;10.74;78.44
72650;SHT31;61467;50.674;4.618;2022-11-15T08:33:42;10.67;78.76
72650;SHT31;61467;50.674;4.618;2022-11-15T08:36:12;10.61;78.43
72650;SHT31;61467;50.674;4.618;2022-11-15T08:38:40;10.60;78.87
72650;SHT31;61467;50.674;4.618;2022-11-15T08:41:11;10.72;78.20
72650;SHT31;61467;50.674;4.618;2022-11-15T08:43:38;10.65;78.12
72650;SHT31;61467;50.674;4.618;2022-11-15T08:46:05;10.78;77.87
72650;SHT31;61467;50.674;4.618;2022-11-15T08:48:32;10.78;77.48
72650;SHT31;61467;50.674;4.618;2022-11-15T08:50:58;10.75;77.76
72650;SHT31;61467;50.674;4.618;2022-11-15T08:53:25;10.75;77.55
72650;SHT31;61467;50.674;4.618;2022-11-15T08:55:53;10.76;77.49
72650;SHT31;61467;50.674;4.618;2022-11-15T08:58:19;10.71;77.84
72650;SHT31;61467;50.674;4.618;2022-11-15T09:00:46;10.74;77.95
72650;SHT31;61467;50.674;4.618;2022-11-15T09:03:13;10.82;77.53
72650;SHT31;61467;50.674;4.618;2022-11-15T09:05:40;10.91;77.31
72650;SHT31;61467;50.674;4.618;2022-11-15T09:08:07;10.81;77.13
72650;SHT31;61467;50.674;4.618;2022-11-15T09:10:34;10.75;77.15
72650;SHT31;61467;50.674;4.618;2022-11-15T09:13:03;10.92;77.07
72650;SHT31;61467;50.674;4.618;2022-11-15T09:15:30;10.89;76.99
72650;SHT31;61467;50.674;4.618;2022-11-15T09:17:58;10.85;77.15
72650;SHT31;61467;50.674;4.618;2022-11-15T09:20:25;11.08;76.58
72650;SHT31;61467;50.674;4.618;2022-11-15T09:22:51;11.09;76.08
72650;SHT31;61467;50.674;4.618;2022-11-15T09:25:18;11.09;76.01
72650;SHT31;61467;50.674;4.618;2022-11-15T09:27:44;11.09;75.75
72650;SHT31;61467;50.674;4.618;2022-11-15T09:30:13;11.08;75.85
72650;SHT31;61467;50.674;4.618;2022-11-15T09:32:40;11.27;75.79
72650;SHT31;61467;50.674;4.618;2022-11-15T09:35:07;11.29;75.38
72650;SHT31;61467;50.674;4.618;2022-11-15T09:37:33;11.29;74.71
72650;SHT31;61467;50.674;4.618;2022-11-15T09:40:00;11.32;74.49
72650;SHT31;61467;50.674;4.618;2022-11-15T09:42:44;11.29;74.97
72650;SHT31;61467;50.674;4.618;2022-11-15T09:45:19;11.44;74.29
72650;SHT31;61467;50.674;4.618;2022-11-15T09:50:43;11.59;74.49
72650;SHT31;61467;50.674;4.618;2022-11-15T09:53:14;11.67;74.10
72650;SHT31;61467;50.674;4.618;2022-11-15T09:55:48;11.70;73.34
72650;SHT31;61467;50.674;4.618;2022-11-15T09:58:24;11.87;73.60
72650;SHT31;61467;50.674;4.618;2022-11-15T10:00:56;11.91;73.04
72650;SHT31;61467;50.674;4.618;2022-11-15T10:03:27;11.94;73.37
72650;SHT31;61467;50.674;4.618;2022-11-15T10:05:57;11.94;72.64
72650;SHT31;61467;50.674;4.618;2022-11-15T10:08:40;11.94;72.38
72650;SHT31;61467;50.674;4.618;2022-11-15T10:11:15;11.99;72.20
72650;SHT31;61467;50.674;4.618;2022-11-15T10:13:46;11.88;72.13
72650;SHT31;61467;50.674;4.618;2022-11-15T10:16:27;11.91;72.38
72650;SHT31;61467;50.674;4.618;2022-11-15T10:19:04;11.87;72.03
72650;SHT31;61467;50.674;4.618;2022-11-15T10:21:43;11.88;71.94
72650;SHT31;61467;50.674;4.618;2022-11-15T10:24:22;11.78;72.11
72650;SHT31;61467;50.674;4.618;2022-11-15T10:26:50;11.71;71.95
72650;SHT31;61467;50.674;4.618;2022-11-15T10:29:18;11.73;72.22
72650;SHT31;61467;50.674;4.618;2022-11-15T10:31:47;11.75;72.22
72650;SHT31;61467;50.674;4.618;2022-11-15T10:34:16;11.75;72.22
72650;SHT31;61467;50.674;4.618;2022-11-15T10:36:44;11.80;71.99
72650;SHT31;61467;50.674;4.618;2022-11-15T10:39:11;11.88;71.94
72650;SHT31;61467;50.674;4.618;2022-11-15T10:41:40;11.90;72.15
72650;SHT31;61467;50.674;4.618;2022-11-15T10:44:18;11.80;71.73
72650;SHT31;61467;50.674;4.618;2022-11-15T10:46:48;11.83;72.01
72650;SHT31;61467;50.674;4.618;2022-11-15T10:49:18;11.90;71.85
72650;SHT31;61467;50.674;4.618;2022-11-15T10:51:47;12.01;71.43
72650;SHT31;61467;50.674;4.618;2022-11-15T10:54:19;12.10;71.18
72650;SHT31;61467;50.674;4.618;2022-11-15T10:56:49;12.12;71.29
72650;SHT31;61467;50.674;4.618;2022-11-15T10:59:23;12.18;70.86
72650;SHT31;61467;50.674;4.618;2022-11-15T11:01:51;12.11;70.99
72650;SHT31;61467;50.674;4.618;2022-11-15T11:04:18;12.25;70.87
72650;SHT31;61467;50.674;4.618;2022-11-15T11:06:49;12.26;70.45
72650;SHT31;61467;50.674;4.618;2022-11-15T11:09:33;12.36;69.97
72650;SHT31;61467;50.674;4.618;2022-11-15T11:12:01;12.55;69.17
72650;SHT31;61467;50.674;4.618;2022-11-15T11:14:31;12.63;68.75
72650;SHT31;61467;50.674;4.618;2022-11-15T11:17:04;12.72;68.78
72650;SHT31;61467;50.674;4.618;2022-11-15T11:19:49;12.79;68.54
72650;SHT31;61467;50.674;4.618;2022-11-15T11:22:26;12.92;68.25
72650;SHT31;61467;50.674;4.618;2022-11-15T11:25:04;12.66;68.65
72650;SHT31;61467;50.674;4.618;2022-11-15T11:27:42;12.80;67.86
72650;SHT31;61467;50.674;4.618;2022-11-15T11:30:14;12.96;68.47
72650;SHT31;61467;50.674;4.618;2022-11-15T11:32:58;13.00;67.86
72650;SHT31;61467;50.674;4.618;2022-11-15T11:35:32;12.84;68.78
72650;SHT31;61467;50.674;4.618;2022-11-15T11:38:12;13.03;68.66
72650;SHT31;61467;50.674;4.618;2022-11-15T11:40:49;13.08;68.20
72650;SHT31;61467;50.674;4.618;2022-11-15T11:43:23;12.89;68.96
72650;SHT31;61467;50.674;4.618;2022-11-15T11:46:08;13.00;68.35
72650;SHT31;61467;50.674;4.618;2022-11-15T11:48:41;13.06;68.79
72650;SHT31;61467;50.674;4.618;2022-11-15T11:51:16;12.90;69.02
72650;SHT31;61467;50.674;4.618;2022-11-15T11:53:49;13.02;68.86
72650;SHT31;61467;50.674;4.618;2022-11-15T11:56:23;12.99;69.05
72650;SHT31;61467;50.674;4.618;2022-11-15T11:58:52;13.03;68.99
72650;SHT31;61467;50.674;4.618;2022-11-15T12:01:23;13.03;68.97
72650;SHT31;61467;50.674;4.618;2022-11-15T12:03:55;13.15;69.04
72650;SHT31;61467;50.674;4.618;2022-11-15T12:06:30;13.04;69.56
72650;SHT31;61467;50.674;4.618;2022-11-15T12:09:01;13.08;69.49
72650;SHT31;61467;50.674;4.618;2022-11-15T12:11:32;13.13;69.55
72650;SHT31;61467;50.674;4.618;2022-11-15T12:14:05;12.99;70.06
72650;SHT31;61467;50.674;4.618;2022-11-15T12:16:42;13.14;69.73
72650;SHT31;61467;50.674;4.618;2022-11-15T12:19:10;13.21;69.92
72650;SHT31;61467;50.674;4.618;2022-11-15T12:21:43;13.02;70.42
72650;SHT31;61467;50.674;4.618;2022-11-15T12:24:14;12.94;70.40
72650;SHT31;61467;50.674;4.618;2022-11-15T12:26:49;13.03;70.40
72650;SHT31;61467;50.674;4.618;2022-11-15T12:29:23;13.10;70.14
72650;SHT31;61467;50.674;4.618;2022-11-15T12:31:54;13.15;70.37
72650;SHT31;61467;50.674;4.618;2022-11-15T12:34:42;13.11;70.39
72650;SHT31;61467;50.674;4.618;2022-11-15T12:37:32;13.15;70.35
72650;SHT31;61467;50.674;4.618;2022-11-15T12:40:21;13.18;70.53
72650;SHT31;61467;50.674;4.618;2022-11-15T12:46:02;13.21;70.46
72650;SHT31;61467;50.674;4.618;2022-11-15T12:48:58;13.25;70.08
72650;SHT31;61467;50.674;4.618;2022-11-15T12:55:01;13.33;70.76
72650;SHT31;61467;50.674;4.618;2022-11-15T12:57:33;13.51;70.05
72650;SHT31;61467;50.674;4.618;2022-11-15T13:00:04;13.52;70.11
72650;SHT31;61467;50.674;4.618;2022-11-15T13:02:33;13.61;70.11
72650;SHT31;61467;50.674;4.618;2022-11-15T13:08:01;13.72;70.03
72650;SHT31;61467;50.674;4.618;2022-11-15T13:10:31;13.66;70.27
72650;SHT31;61467;50.674;4.618;2022-11-15T13:12:59;13.75;70.35
72650;SHT31;61467;50.674;4.618;2022-11-15T13:15:55;13.59;70.44
72650;SHT31;61467;50.674;4.618;2022-11-15T13:18:33;13.64;70.61
72650;SHT31;61467;50.674;4.618;2022-11-15T13:21:01;13.47;70.70
72650;SHT31;61467;50.674;4.618;2022-11-15T13:23:53;13.55;70.61
72650;SHT31;61467;50.674;4.618;2022-11-15T13:26:21;13.52;70.86
72650;SHT31;61467;50.674;4.618;2022-11-15T13:28:52;13.59;71.02
72650;SHT31;61467;50.674;4.618;2022-11-15T13:31:26;13.64;70.82
72650;SHT31;61467;50.674;4.618;2022-11-15T13:33:58;13.62;71.08
72650;SHT31;61467;50.674;4.618;2022-11-15T13:36:28;13.62;70.75
72650;SHT31;61467;50.674;4.618;2022-11-15T13:38:58;13.68;70.63
72650;SHT31;61467;50.674;4.618;2022-11-15T13:41:28;13.69;70.65
72650;SHT31;61467;50.674;4.618;2022-11-15T13:43:56;13.66;70.45
72650;SHT31;61467;50.674;4.618;2022-11-15T13:46:25;13.72;70.31
72650;SHT31;61467;50.674;4.618;2022-11-15T13:48:55;13.72;70.65
72650;SHT31;61467;50.674;4.618;2022-11-15T13:51:28;13.65;70.59
72650;SHT31;61467;50.674;4.618;2022-11-15T13:53:58;13.48;70.91
72650;SHT31;61467;50.674;4.618;2022-11-15T13:56:29;13.66;70.68
72650;SHT31;61467;50.674;4.618;2022-11-15T13:58:57;13.64;70.40
72650;SHT31;61467;50.674;4.618;2022-11-15T14:01:25;13.75;70.37
72650;SHT31;61467;50.674;4.618;2022-11-15T14:03:57;13.69;70.25
72650;SHT31;61467;50.674;4.618;2022-11-15T14:06:25;13.72;70.52
72650;SHT31;61467;50.674;4.618;2022-11-15T14:11:55;13.73;70.95
72650;SHT31;61467;50.674;4.618;2022-11-15T14:14:24;13.75;70.72
72650;SHT31;61467;50.674;4.618;2022-11-15T14:16:52;13.62;71.19
72650;SHT31;61467;50.674;4.618;2022-11-15T14:19:38;13.68;70.83
72650;SHT31;61467;50.674;4.618;2022-11-15T14:22:11;13.64;71.14
72650;SHT31;61467;50.674;4.618;2022-11-15T14:24:38;13.62;70.70
72650;SHT31;61467;50.674;4.618;2022-11-15T14:27:24;13.66;70.53
72650;SHT31;61467;50.674;4.618;2022-11-15T14:29:51;13.72;70.46
72650;SHT31;61467;50.674;4.618;2022-11-15T14:32:19;13.68;70.52
72650;SHT31;61467;50.674;4.618;2022-11-15T14:34:47;13.59;71.08
72650;SHT31;61467;50.674;4.618;2022-11-15T14:37:20;13.71;70.77
72650;SHT31;61467;50.674;4.618;2022-11-15T14:39:47;13.66;70.85
72650;SHT31;61467;50.674;4.618;2022-11-15T14:42:14;13.66;71.08
72650;SHT31;61467;50.674;4.618;2022-11-15T14:44:42;13.62;71.31
72650;SHT31;61467;50.674;4.618;2022-11-15T14:47:08;13.64;71.51
72650;SHT31;61467;50.674;4.618;2022-11-15T14:49:35;13.54;71.80
72650;SHT31;61467;50.674;4.618;2022-11-15T14:52:02;13.61;71.95
72650;SHT31;61467;50.674;4.618;2022-11-15T14:54:29;13.51;72.85
72650;SHT31;61467;50.674;4.618;2022-11-15T14:56:55;13.61;73.35
72650;SHT31;61467;50.674;4.618;2022-11-15T14:59:22;13.62;73.60
72650;SHT31;61467;50.674;4.618;2022-11-15T15:01:50;13.54;74.29
72650;SHT31;61467;50.674;4.618;2022-11-15T15:04:17;13.48;74.22
72650;SHT31;61467;50.674;4.618;2022-11-15T15:06:43;13.40;74.78
72650;SHT31;61467;50.674;4.618;2022-11-15T15:09:10;13.40;74.78
72650;SHT31;61467;50.674;4.618;2022-11-15T15:11:37;13.42;74.81
72650;SHT31;61467;50.674;4.618;2022-11-15T15:14:03;13.34;74.88
72650;SHT31;61467;50.674;4.618;2022-11-15T15:16:30;13.38;75.17
72650;SHT31;61467;50.674;4.618;2022-11-15T15:18:58;13.42;75.25
72650;SHT31;61467;50.674;4.618;2022-11-15T15:21:26;13.42;75.27
72650;SHT31;61467;50.674;4.618;2022-11-15T15:23:54;13.41;75.56
72650;SHT31;61467;50.674;4.618;2022-11-15T15:26:20;13.30;76.11
72650;SHT31;61467;50.674;4.618;2022-11-15T15:28:47;13.20;75.90
72650;SHT31;61467;50.674;4.618;2022-11-15T15:31:16;13.20;76.42
72650;SHT31;61467;50.674;4.618;2022-11-15T15:33:43;13.23;76.78
72650;SHT31;61467;50.674;4.618;2022-11-15T15:36:13;13.08;77.37
72650;SHT31;61467;50.674;4.618;2022-11-15T15:38:40;13.24;77.16
72650;SHT31;61467;50.674;4.618;2022-11-15T15:41:09;13.23;77.51
72650;SHT31;61467;50.674;4.618;2022-11-15T15:43:36;13.18;78.28
72650;SHT31;61467;50.674;4.618;2022-11-15T15:46:03;13.11;78.48
72650;SHT31;61467;50.674;4.618;2022-11-15T15:48:29;13.00;79.07
72650;SHT31;61467;50.674;4.618;2022-11-15T15:50:58;13.11;78.49
72650;SHT31;61467;50.674;4.618;2022-11-15T15:53:26;13.13;78.63
72650;SHT31;61467;50.674;4.618;2022-11-15T15:55:53;13.02;79.28
72650;SHT31;61467;50.674;4.618;2022-11-15T15:58:19;13.08;79.04
72650;SHT31;61467;50.674;4.618;2022-11-15T16:00:46;13.07;79.09
72650;SHT31;61467;50.674;4.618;2022-11-15T16:03:13;13.13;78.90
72650;SHT31;61467;50.674;4.618;2022-11-15T16:05:39;13.08;79.37